الصفحة الرئيسية
METAR-TAF:

METAR-TAF

مطار :

مطار نغوراه راي الدولي

دنباسار, إندونيسيا

دائرة عرض: 08-44-53S, خط طول: 115-10-03E, ارتفاع: 4 متر

مراقبة الطقس الحالي

تاريخ ووقت الإصدار 37 دقيقة قبل الساعة 21:30UTC
ريح 2 عقدة من الشمال الشرقي
درجة الحرارة 26°درجة مئوية
الرطوبة 100%
ضغط 1011 hPa
الرؤية 10 كم أو أكثر
غيوم متفرقة على ارتفاع 1700 قدم

METAR: WADD 252130Z 05002KT 9999 SCT017 26/26 Q1011 NOSIG

زمن: 05:07 (22:07 UTC)

توقعات

تاريخ ووقت الإصدار 5ساعات و 7 دقيقة قبل الساعة 17:00UTC
التوقعات صالحة من25 الساعة 18 UTC إلى 26 الساعة 18 UTC
ريح 5 عقدةمن اتجاهات متغيرة
الرؤية 10 كم أو أكثر
غيوم متفرقة على ارتفاع 1700 قدم
أصبح
من 26 الساعة 02 UTC إلى 26 الساعة 04 UTC
ريح 10 عقدة من الجنوب/الجنوب الغربي
مؤقت
من 26 الساعة 09 UTC إلى 26 الساعة 13 UTC
الرؤية: 6000 متر
غيوم قليلة على ارتفاع 1500 قدم, مزنة ركامية.
غيوم مفككة على ارتفاع 1500 قدم
مطر خفيف

TAF: WADD 251700Z 2518/2618 VRB05KT 9999 SCT017 BECMG 2602/2604 20010KT TEMPO 2609/2613 6000 -RA FEW015CB BKN015

أرصاد الطقس والتوقعات من أكثر من 4000 مطار (تقارير الطقس للمطار METAR والتنبؤ بالطقس بالمطارTAF).

المحطات المتاحة هي النقط الصفراء والحمراء على الخريطة.

حرك المؤشر فوق النقطة لمعرفة اسم المحطة.

ثم انقر لمعرفة أرصاد وتوقعات الطقس.

لتغيير الخارطة: اضغط على الأزرار الخضراء مع رمز الصليب الأسود للتكبير. على الزر الأخضر مع شرطة للتصغير، أو على الأسهم الخضراء للخرائط المجاورة.


METAR-TAF: